createdAt,value
2023-03-11T00:02:24.050Z,0
2023-03-11T00:03:04.516Z,0
2023-03-11T00:03:45.910Z,0
2023-03-11T00:04:26.432Z,0
2023-03-11T00:07:50.017Z,0
2023-03-11T00:08:30.548Z,0
2023-03-11T00:09:11.093Z,0
2023-03-11T00:09:51.609Z,0
2023-03-11T00:10:32.106Z,0
2023-03-11T00:11:12.617Z,0
2023-03-11T00:13:51.357Z,0
2023-03-11T00:14:32.511Z,0
2023-03-11T00:15:13.072Z,0
2023-03-11T00:15:53.594Z,0
2023-03-11T00:21:11.503Z,0
2023-03-11T00:21:52.717Z,0
2023-03-11T00:22:33.253Z,0
2023-03-11T00:23:13.777Z,0
2023-03-11T00:26:36.398Z,0
2023-03-11T00:27:16.975Z,0
2023-03-11T00:27:57.502Z,0
2023-03-11T00:30:36.197Z,0
2023-03-11T00:31:16.759Z,0
2023-03-11T00:31:57.192Z,0
2023-03-11T00:32:37.849Z,0
2023-03-11T00:36:40.886Z,0
2023-03-11T00:37:21.566Z,0
2023-03-11T00:38:01.970Z,0
2023-03-11T00:38:44.260Z,0
2023-03-11T00:39:24.725Z,0
2023-03-11T00:41:37.774Z,0
2023-03-11T00:42:18.305Z,0
2023-03-11T00:42:58.769Z,0
2023-03-11T00:43:39.942Z,0
2023-03-11T00:45:42.387Z,0
2023-03-11T00:46:23.017Z,0
2023-03-11T00:47:03.467Z,0
2023-03-11T00:49:37.102Z,0
2023-03-11T00:50:18.407Z,0
2023-03-11T00:51:00.929Z,0
2023-03-11T00:51:41.418Z,0
2023-03-11T00:52:21.922Z,0
2023-03-11T00:53:02.468Z,0
2023-03-11T00:53:42.990Z,0
2023-03-11T00:54:23.467Z,0
2023-03-11T00:56:57.808Z,0
2023-03-11T00:57:38.343Z,0
2023-03-11T00:58:20.460Z,0
2023-03-11T00:59:04.405Z,0
2023-03-11T01:01:19.574Z,0
2023-03-11T01:02:00.589Z,0
2023-03-11T01:02:41.080Z,0
2023-03-11T01:03:21.606Z,0
2023-03-11T01:05:39.468Z,0
2023-03-11T01:06:20.641Z,0
2023-03-11T01:07:01.152Z,0
2023-03-11T01:07:41.688Z,0
2023-03-11T01:11:04.459Z,0
2023-03-11T01:11:44.943Z,0
2023-03-11T01:13:59.067Z,0
2023-03-11T01:14:39.589Z,0
2023-03-11T01:15:20.136Z,0
2023-03-11T01:16:00.660Z,0
2023-03-11T01:19:23.287Z,0
2023-03-11T01:20:03.824Z,0
2023-03-11T01:20:44.342Z,0
2023-03-11T01:21:25.556Z,0
2023-03-11T01:22:06.099Z,0
2023-03-11T01:22:46.646Z,0
2023-03-11T01:23:27.169Z,0
2023-03-11T01:27:11.122Z,0
2023-03-11T01:27:51.652Z,0
2023-03-11T01:28:32.143Z,0
2023-03-11T01:29:12.662Z,0
2023-03-11T01:32:35.457Z,0
2023-03-11T01:33:15.895Z,0
2023-03-11T01:33:56.407Z,0
2023-03-11T01:34:36.905Z,0
2023-03-11T01:35:17.448Z,0
2023-03-11T01:35:57.974Z,0
2023-03-11T01:36:38.520Z,0
2023-03-11T01:37:19.068Z,0
2023-03-11T01:37:59.605Z,0
2023-03-11T01:38:40.126Z,0
2023-03-11T01:43:54.939Z,0
2023-03-11T01:44:35.385Z,0
2023-03-11T01:45:15.900Z,0
2023-03-11T01:45:56.426Z,0
2023-03-11T01:50:00.247Z,0
2023-03-11T01:50:40.747Z,0
2023-03-11T01:51:21.251Z,0
2023-03-11T01:52:01.796Z,0
2023-03-11T01:52:42.312Z,0
2023-03-11T01:53:22.863Z,0
2023-03-11T01:54:03.374Z,0
2023-03-11T01:54:43.893Z,0
2023-03-11T02:00:49.837Z,0
2023-03-11T02:01:30.416Z,0
2023-03-11T02:05:13.483Z,0
2023-03-11T02:05:54.060Z,0
2023-03-11T02:06:34.569Z,0
2023-03-11T02:07:15.087Z,0
2023-03-11T02:10:38.476Z,0
2023-03-11T02:11:18.994Z,0
2023-03-11T02:11:59.532Z,0
2023-03-11T02:12:40.922Z,0
2023-03-11T02:13:21.451Z,0
2023-03-11T02:14:01.957Z,0
2023-03-11T02:14:42.468Z,0
2023-03-11T02:15:23.084Z,0
2023-03-11T02:22:08.429Z,0
2023-03-11T02:24:48.166Z,0
2023-03-11T02:25:31.487Z,0
2023-03-11T02:26:13.898Z,0
2023-03-11T02:26:57.060Z,0
2023-03-11T02:29:10.355Z,0
2023-03-11T02:29:51.729Z,0
2023-03-11T02:30:32.325Z,0
2023-03-11T02:31:15.736Z,0
2023-03-11T02:33:28.711Z,0
2023-03-11T02:34:09.219Z,0
2023-03-11T02:34:49.784Z,0
2023-03-11T02:35:30.294Z,0
2023-03-11T02:38:09.965Z,0
2023-03-11T02:38:50.463Z,0
2023-03-11T02:39:30.981Z,0
2023-03-11T02:40:11.517Z,0
2023-03-11T02:44:14.616Z,0
2023-03-11T02:44:55.141Z,0
2023-03-11T02:45:35.661Z,0
2023-03-11T02:46:16.276Z,0
2023-03-11T02:46:57.764Z,0
2023-03-11T02:47:38.188Z,0
2023-03-11T02:48:18.703Z,0
2023-03-11T02:48:59.227Z,0
2023-03-11T02:56:24.981Z,0
2023-03-11T02:57:05.488Z,0
2023-03-11T02:57:46.014Z,0
2023-03-11T02:58:26.530Z,0
2023-03-11T02:59:07.037Z,0
2023-03-11T02:59:48.509Z,0
2023-03-11T03:06:34.723Z,0
2023-03-11T03:07:15.282Z,0
2023-03-11T03:07:55.785Z,0
2023-03-11T03:08:36.294Z,0
2023-03-11T03:09:16.822Z,0
2023-03-11T03:09:57.344Z,0
2023-03-11T03:10:37.877Z,0
2023-03-11T03:11:18.390Z,0
2023-03-11T03:11:58.913Z,0
2023-03-11T03:12:39.418Z,0
2023-03-11T03:19:25.682Z,0
2023-03-11T03:20:06.231Z,0
2023-03-11T03:20:46.713Z,0
2023-03-11T03:21:27.229Z,0
2023-03-11T03:22:07.746Z,0
2023-03-11T03:22:48.270Z,0
2023-03-11T03:23:28.814Z,0
2023-03-11T03:24:09.333Z,0
2023-03-11T03:30:14.856Z,0
2023-03-11T03:30:55.387Z,0
2023-03-11T03:31:35.962Z,0
2023-03-11T03:32:16.520Z,0
2023-03-11T03:35:59.166Z,0
2023-03-11T03:36:39.597Z,0
2023-03-11T03:37:20.151Z,0
2023-03-11T03:38:00.661Z,0
2023-03-11T03:41:23.278Z,0
2023-03-11T03:42:03.792Z,0
2023-03-11T03:42:44.315Z,0
2023-03-11T03:43:24.861Z,0
2023-03-11T03:44:05.351Z,0
2023-03-11T03:44:45.894Z,0
2023-03-11T03:45:26.403Z,0
2023-03-11T03:46:06.932Z,0
2023-03-11T03:52:53.058Z,0
2023-03-11T03:53:33.575Z,0
2023-03-11T03:54:14.625Z,0
2023-03-11T03:54:55.144Z,0
2023-03-11T03:55:35.694Z,0
2023-03-11T03:56:16.192Z,0
2023-03-11T03:58:55.584Z,0
2023-03-11T03:59:36.105Z,0
2023-03-11T04:00:16.627Z,0
2023-03-11T04:00:57.163Z,0
2023-03-11T04:04:19.781Z,0
2023-03-11T04:05:00.278Z,0
2023-03-11T04:07:38.967Z,0
2023-03-11T04:08:19.488Z,0
2023-03-11T04:09:00.001Z,0
2023-03-11T04:09:40.510Z,0
2023-03-11T04:13:04.032Z,0
2023-03-11T04:13:44.578Z,0
2023-03-11T04:14:25.052Z,0
2023-03-11T04:18:07.468Z,0
2023-03-11T04:18:47.993Z,0
2023-03-11T04:19:28.506Z,0
2023-03-11T04:20:09.051Z,0
2023-03-11T04:24:12.185Z,0
2023-03-11T04:24:53.522Z,0
2023-03-11T04:25:34.062Z,0
2023-03-11T04:26:14.590Z,0
2023-03-11T04:26:55.078Z,0
2023-03-11T04:27:35.619Z,0
2023-03-11T04:28:16.927Z,0
2023-03-11T04:34:33.505Z,0
2023-03-11T04:35:13.996Z,0
2023-03-11T04:35:55.366Z,0
2023-03-11T04:36:35.881Z,0
2023-03-11T04:39:29.390Z,0
2023-03-11T04:40:09.943Z,0
2023-03-11T04:40:51.030Z,0
2023-03-11T04:41:31.584Z,0
2023-03-11T04:44:54.207Z,0
2023-03-11T04:45:35.526Z,0
2023-03-11T04:46:16.092Z,0
2023-03-11T04:48:54.497Z,0
2023-03-11T04:49:35.019Z,0
2023-03-11T04:50:15.550Z,0
2023-03-11T04:50:56.096Z,0
2023-03-11T04:54:19.287Z,0
2023-03-11T04:54:59.808Z,0
2023-03-11T04:55:40.362Z,0
2023-03-11T04:56:20.901Z,0
2023-03-11T04:57:01.436Z,0
2023-03-11T04:57:42.521Z,0
2023-03-11T04:58:23.069Z,0
2023-03-11T05:05:09.264Z,0
2023-03-11T05:05:49.797Z,0
2023-03-11T05:06:30.299Z,0
2023-03-11T05:07:10.848Z,0
2023-03-11T05:07:51.393Z,0
2023-03-11T05:08:32.899Z,0
2023-03-11T05:09:13.390Z,0
2023-03-11T05:09:53.925Z,0
2023-03-11T05:15:19.507Z,0
2023-03-11T05:16:00.037Z,0
2023-03-11T05:16:40.532Z,0
2023-03-11T05:17:21.059Z,0
2023-03-11T05:18:02.452Z,0
2023-03-11T05:18:42.976Z,0
2023-03-11T05:19:23.516Z,0
2023-03-11T05:20:04.035Z,0
2023-03-11T05:27:58.388Z,0
2023-03-11T05:28:38.888Z,0
2023-03-11T05:29:19.390Z,0
2023-03-11T05:29:59.927Z,0
2023-03-11T05:33:18.912Z,0
2023-03-11T05:34:00.111Z,0
2023-03-11T05:34:40.620Z,0
2023-03-11T05:35:21.165Z,0
2023-03-11T05:41:57.164Z,0
2023-03-11T05:42:37.717Z,0
2023-03-11T05:43:18.291Z,0
2023-03-11T05:43:58.814Z,0
2023-03-11T05:48:01.930Z,5
2023-03-11T05:48:42.450Z,5
2023-03-11T05:49:22.964Z,5
2023-03-11T05:50:03.468Z,5
2023-03-11T05:50:44.026Z,5
2023-03-11T05:51:24.542Z,5
2023-03-11T05:52:05.046Z,5
2023-03-11T05:52:45.564Z,5
2023-03-11T05:53:26.075Z,5
2023-03-11T05:54:06.566Z,5
2023-03-11T06:00:12.153Z,10
2023-03-11T06:00:52.700Z,10
2023-03-11T06:03:30.897Z,15
2023-03-11T06:04:11.663Z,15
2023-03-11T06:04:52.195Z,15
2023-03-11T06:05:32.454Z,15
2023-03-11T06:09:35.544Z,20
2023-03-11T06:10:16.179Z,20
2023-03-11T06:10:56.664Z,25
2023-03-11T06:11:37.252Z,25
2023-03-11T06:12:18.775Z,25
2023-03-11T06:12:59.330Z,25
2023-03-11T06:13:40.779Z,25
2023-03-11T06:19:05.823Z,40
2023-03-11T06:19:46.369Z,40
2023-03-11T06:20:26.950Z,45
2023-03-11T06:21:07.491Z,45
2023-03-11T06:21:48.028Z,45
2023-03-11T06:22:28.575Z,50
2023-03-11T06:23:09.135Z,50
2023-03-11T06:23:49.672Z,55
2023-03-11T06:24:30.181Z,55
2023-03-11T06:28:04.546Z,60
2023-03-11T06:28:45.052Z,60
2023-03-11T06:29:25.582Z,60
2023-03-11T06:30:06.125Z,55
2023-03-11T06:34:09.355Z,55
2023-03-11T06:34:49.869Z,55
2023-03-11T06:35:30.421Z,55
2023-03-11T06:36:10.959Z,55
2023-03-11T06:36:51.510Z,55
2023-03-11T06:37:32.038Z,55
2023-03-11T06:38:12.543Z,55
2023-03-11T06:38:53.101Z,55
2023-03-11T06:39:33.642Z,60
2023-03-11T06:44:29.712Z,60
2023-03-11T06:45:10.203Z,60
2023-03-11T06:45:50.774Z,60
2023-03-11T06:46:32.182Z,60
2023-03-11T06:48:34.694Z,65
2023-03-11T06:49:15.244Z,65
2023-03-11T06:49:55.807Z,65
2023-03-11T06:50:36.351Z,65
2023-03-11T06:51:16.915Z,65
2023-03-11T06:51:57.452Z,65
2023-03-11T06:54:36.276Z,70
2023-03-11T06:55:16.853Z,70
2023-03-11T06:55:57.375Z,70
2023-03-11T06:56:37.934Z,70
2023-03-11T07:00:42.738Z,70
2023-03-11T07:01:21.703Z,65
2023-03-11T07:02:02.238Z,65
2023-03-11T07:02:42.798Z,65
2023-03-11T07:03:23.337Z,65
2023-03-11T07:04:04.026Z,65
2023-03-11T07:04:44.429Z,60
2023-03-11T07:05:24.995Z,60
2023-03-11T07:06:06.669Z,60
2023-03-11T07:12:11.110Z,65
2023-03-11T07:12:52.217Z,65
2023-03-11T07:13:32.233Z,70
2023-03-11T07:14:12.770Z,70
2023-03-11T07:16:50.996Z,75
2023-03-11T07:17:31.486Z,75
2023-03-11T07:18:11.972Z,75
2023-03-11T07:18:52.535Z,75
2023-03-11T07:22:15.894Z,75
2023-03-11T07:22:57.420Z,80
2023-03-11T07:23:37.960Z,80
2023-03-11T07:24:18.500Z,80
2023-03-11T07:24:59.018Z,80
2023-03-11T07:25:39.567Z,80
2023-03-11T07:26:20.237Z,80
2023-03-11T07:31:57.218Z,200
2023-03-11T07:32:37.745Z,210
2023-03-11T07:33:18.512Z,220
2023-03-11T07:33:59.334Z,225
2023-03-11T07:39:17.745Z,225
2023-03-11T07:39:57.999Z,220
2023-03-11T07:40:38.528Z,220
2023-03-11T07:41:19.097Z,230
2023-03-11T07:44:42.364Z,155
2023-03-11T07:45:22.828Z,125
2023-03-11T07:46:03.481Z,105
2023-03-11T07:46:43.913Z,100
2023-03-11T07:47:24.458Z,95
2023-03-11T07:48:04.962Z,105
2023-03-11T07:48:45.507Z,130
2023-03-11T07:49:26.013Z,170
2023-03-11T07:50:06.657Z,220
2023-03-11T07:56:45.721Z,285
2023-03-11T07:57:26.269Z,285
2023-03-11T07:58:06.766Z,265
2023-03-11T07:58:47.289Z,225
2023-03-11T08:02:50.650Z,105
2023-03-11T08:03:31.969Z,110
2023-03-11T08:04:14.271Z,110
2023-03-11T08:04:52.949Z,110
2023-03-11T08:05:33.436Z,110
2023-03-11T08:06:13.970Z,115
2023-03-11T08:06:54.521Z,110
2023-03-11T08:07:35.047Z,110
2023-03-11T08:13:40.763Z,150
2023-03-11T08:14:21.286Z,150
2023-03-11T08:15:02.711Z,150
2023-03-11T08:15:43.295Z,155
2023-03-11T08:16:23.784Z,155
2023-03-11T08:17:04.358Z,160
2023-03-11T08:17:44.870Z,160
2023-03-11T08:24:30.784Z,130
2023-03-11T08:25:11.319Z,135
2023-03-11T08:25:51.895Z,140
2023-03-11T08:26:32.420Z,150
2023-03-11T08:27:12.988Z,175
2023-03-11T08:27:53.533Z,205
2023-03-11T08:28:34.082Z,270
2023-03-11T08:29:14.623Z,335
2023-03-11T08:29:55.179Z,375
2023-03-11T08:36:40.625Z,445
2023-03-11T08:37:23.370Z,445
2023-03-11T08:38:01.681Z,450
2023-03-11T08:38:42.279Z,315
2023-03-11T08:39:22.784Z,415
2023-03-11T08:40:03.345Z,425
2023-03-11T08:40:43.896Z,470
2023-03-11T08:41:24.736Z,480
2023-03-11T08:42:05.089Z,490
2023-03-11T08:48:22.884Z,450
2023-03-11T08:49:03.451Z,450
2023-03-11T08:49:44.544Z,445
2023-03-11T08:50:25.074Z,445
2023-03-11T08:54:15.623Z,430
2023-03-11T08:54:56.192Z,420
2023-03-11T08:55:36.715Z,420
2023-03-11T08:56:17.825Z,420
2023-03-11T09:03:31.591Z,420
2023-03-11T09:04:12.126Z,420
2023-03-11T09:04:52.652Z,415
2023-03-11T09:05:33.184Z,410
2023-03-11T09:08:27.292Z,370
2023-03-11T09:09:07.834Z,280
2023-03-11T09:09:49.404Z,210
2023-03-11T09:12:29.878Z,355
2023-03-11T09:13:10.431Z,355
2023-03-11T09:13:50.974Z,360
2023-03-11T09:14:32.310Z,365
2023-03-11T09:17:54.990Z,370
2023-03-11T09:18:35.495Z,370
2023-03-11T09:19:16.745Z,380
2023-03-11T09:19:57.276Z,380
2023-03-11T09:20:37.814Z,390
2023-03-11T09:21:19.185Z,395
2023-03-11T09:24:53.360Z,165
2023-03-11T09:25:33.937Z,155
2023-03-11T09:26:14.462Z,145
2023-03-11T09:26:54.971Z,140
2023-03-11T09:29:49.276Z,135
2023-03-11T09:30:29.816Z,135
2023-03-11T09:31:10.382Z,135
2023-03-11T09:31:50.920Z,135
2023-03-11T09:34:32.914Z,140
2023-03-11T09:35:13.404Z,140
2023-03-11T09:35:53.982Z,145
2023-03-11T09:36:34.439Z,150
2023-03-11T09:37:15.493Z,155
2023-03-11T09:39:55.178Z,185
2023-03-11T09:40:35.716Z,200
2023-03-11T09:41:16.256Z,220
2023-03-11T09:41:58.654Z,235
2023-03-11T09:44:40.189Z,565
2023-03-11T09:45:20.690Z,615
2023-03-11T09:46:01.250Z,640
2023-03-11T09:46:41.824Z,660
2023-03-11T09:47:23.014Z,675
2023-03-11T09:48:03.517Z,695
2023-03-11T09:48:44.616Z,225
2023-03-11T09:50:50.614Z,225
2023-03-11T09:51:31.140Z,235
2023-03-11T09:52:11.685Z,800
2023-03-11T09:52:52.195Z,815
2023-03-11T09:53:32.727Z,840
2023-03-11T09:54:13.266Z,860
2023-03-11T09:54:53.831Z,875
2023-03-11T09:55:34.395Z,885
2023-03-11T10:03:12.447Z,940
2023-03-11T10:03:52.971Z,960
2023-03-11T10:04:33.544Z,970
2023-03-11T10:05:14.132Z,990
2023-03-11T10:08:37.382Z,1040
2023-03-11T10:09:17.889Z,1040
2023-03-11T10:09:59.374Z,1040
2023-03-11T10:12:18.360Z,1050
2023-03-11T10:12:58.894Z,1035
2023-03-11T10:13:39.421Z,1040
2023-03-11T10:14:21.552Z,1035
2023-03-11T10:16:39.856Z,1045
2023-03-11T10:17:20.304Z,1050
2023-03-11T10:18:01.417Z,1050
2023-03-11T10:18:41.954Z,1045
2023-03-11T10:22:16.367Z,1050
2023-03-11T10:22:56.943Z,1045
2023-03-11T10:23:38.259Z,1045
2023-03-11T10:24:18.904Z,1060
2023-03-11T10:26:37.294Z,1065
2023-03-11T10:27:17.808Z,1060
2023-03-11T10:27:58.346Z,1045
2023-03-11T10:28:38.892Z,1045
2023-03-11T10:31:22.996Z,950
2023-03-11T10:32:03.434Z,785
2023-03-11T10:32:44.034Z,1015
2023-03-11T10:35:22.193Z,1005
2023-03-11T10:36:02.754Z,780
2023-03-11T10:36:43.258Z,710
2023-03-11T10:37:23.830Z,340
2023-03-11T10:40:46.973Z,325
2023-03-11T10:41:27.579Z,375
2023-03-11T10:42:08.111Z,365
2023-03-11T10:42:48.656Z,730
2023-03-11T10:43:29.202Z,600
2023-03-11T10:46:07.413Z,650
2023-03-11T10:46:47.940Z,1065
2023-03-11T10:47:28.440Z,1065
2023-03-11T10:48:08.986Z,1070
2023-03-11T10:51:32.241Z,1090
2023-03-11T10:54:10.501Z,735
2023-03-11T10:54:50.958Z,745
2023-03-11T10:55:31.532Z,885
2023-03-11T10:56:12.066Z,560
2023-03-11T11:01:11.013Z,1055
2023-03-11T11:01:51.468Z,1060
2023-03-11T11:02:32.029Z,1070
2023-03-11T11:03:12.681Z,1070
2023-03-11T11:06:35.443Z,1055
2023-03-11T11:07:15.984Z,1050
2023-03-11T11:07:56.551Z,1050
2023-03-11T11:08:37.135Z,1060
2023-03-11T11:09:17.668Z,1060
2023-03-11T11:09:58.185Z,1065
2023-03-11T11:12:36.929Z,1070
2023-03-11T11:13:17.479Z,900
2023-03-11T11:13:58.077Z,1075
2023-03-11T11:14:38.558Z,1065
2023-03-11T11:19:12.301Z,230
2023-03-11T11:21:39.378Z,210
2023-03-11T11:22:23.051Z,220
2023-03-11T11:23:05.057Z,240
2023-03-11T11:25:44.240Z,310
2023-03-11T11:26:24.780Z,590
2023-03-11T11:27:05.305Z,840
2023-03-11T11:27:45.816Z,960
2023-03-11T11:31:49.155Z,1375
2023-03-11T11:32:29.775Z,1420
2023-03-11T11:33:10.248Z,1445
2023-03-11T11:33:50.805Z,345
2023-03-11T11:34:32.121Z,365
2023-03-11T11:35:12.620Z,355
2023-03-11T11:35:53.192Z,360
2023-03-11T11:36:33.701Z,415
2023-03-11T11:42:50.254Z,1465
2023-03-11T11:43:30.783Z,1465
2023-03-11T11:44:11.283Z,1470
2023-03-11T11:44:51.819Z,670
2023-03-11T11:47:45.094Z,285
2023-03-11T11:48:25.629Z,270
2023-03-11T11:49:06.158Z,260
2023-03-11T11:49:46.732Z,255
2023-03-11T11:53:20.587Z,240
2023-03-11T11:54:01.155Z,245
2023-03-11T11:54:41.712Z,255
2023-03-11T11:55:22.885Z,275
2023-03-11T11:58:19.232Z,455
2023-03-11T11:58:59.802Z,365
2023-03-11T11:59:40.324Z,415
2023-03-11T12:00:21.653Z,695
2023-03-11T12:03:44.364Z,315
2023-03-11T12:06:23.400Z,305
2023-03-11T12:07:03.930Z,285
2023-03-11T12:07:44.466Z,270
2023-03-11T12:08:25.008Z,265
2023-03-11T12:11:47.593Z,220
2023-03-11T12:12:28.129Z,215
2023-03-11T12:13:08.658Z,220
2023-03-11T12:13:49.241Z,245
2023-03-11T12:16:27.894Z,235
2023-03-11T12:17:08.442Z,240
2023-03-11T12:17:48.975Z,250
2023-03-11T12:18:29.492Z,255
2023-03-11T12:21:22.826Z,275
2023-03-11T12:22:03.379Z,270
2023-03-11T12:22:43.946Z,270
2023-03-11T12:23:24.474Z,280
2023-03-11T12:26:59.174Z,280
2023-03-11T12:27:39.691Z,280
2023-03-11T12:28:20.229Z,275
2023-03-11T12:29:00.788Z,280
2023-03-11T12:33:03.905Z,900
2023-03-11T12:33:44.439Z,935
2023-03-11T12:34:24.978Z,940
2023-03-11T12:35:05.553Z,940
2023-03-11T12:37:44.032Z,895
2023-03-11T12:38:24.548Z,885
2023-03-11T12:39:05.101Z,885
2023-03-11T12:39:45.627Z,885
2023-03-11T12:43:48.810Z,860
2023-03-11T12:44:29.957Z,835
2023-03-11T12:45:10.447Z,820
2023-03-11T12:45:50.971Z,810
2023-03-11T12:46:31.575Z,800
2023-03-11T12:47:12.076Z,800
2023-03-11T12:47:52.598Z,810
2023-03-11T12:48:33.120Z,830
2023-03-11T12:49:13.654Z,580
2023-03-11T12:56:10.330Z,400
2023-03-11T12:56:50.848Z,780
2023-03-11T12:57:31.399Z,755
2023-03-11T12:58:11.975Z,750
2023-03-11T13:00:54.974Z,195
2023-03-11T13:01:35.551Z,285
2023-03-11T13:02:16.008Z,700
2023-03-11T13:02:56.574Z,680
2023-03-11T13:03:37.101Z,675
2023-03-11T13:04:17.668Z,670
2023-03-11T13:04:58.209Z,665
2023-03-11T13:05:38.752Z,500
2023-03-11T13:06:19.323Z,665
2023-03-11T13:06:59.847Z,660
2023-03-11T13:14:37.186Z,365
2023-03-11T13:15:17.735Z,665
2023-03-11T13:15:58.294Z,660
2023-03-11T13:16:38.941Z,445
2023-03-11T13:20:42.363Z,600
2023-03-11T13:21:22.898Z,575
2023-03-11T13:22:03.425Z,545
2023-03-11T13:24:42.188Z,515
2023-03-11T13:25:22.717Z,535
2023-03-11T13:26:03.275Z,525
2023-03-11T13:26:43.842Z,525
2023-03-11T13:31:50.303Z,495
2023-03-11T13:32:30.809Z,495
2023-03-11T13:33:11.288Z,495
2023-03-11T13:33:51.863Z,495
2023-03-11T13:39:27.671Z,430
2023-03-11T13:40:08.197Z,325
2023-03-11T13:40:48.709Z,280
2023-03-11T13:41:29.257Z,330
2023-03-11T13:44:12.345Z,345
2023-03-11T13:44:52.882Z,330
2023-03-11T13:45:33.457Z,345
2023-03-11T13:46:14.035Z,380
2023-03-11T13:48:43.953Z,375
2023-03-11T13:49:26.956Z,340
2023-03-11T13:50:10.152Z,190
2023-03-11T13:50:51.459Z,205
2023-03-11T13:53:05.034Z,210
2023-03-11T13:53:45.580Z,220
2023-03-11T13:54:27.158Z,255
2023-03-11T13:55:07.600Z,285
2023-03-11T13:58:00.997Z,395
2023-03-11T13:58:41.595Z,375
2023-03-11T13:59:22.134Z,365
2023-03-11T14:00:02.725Z,365
2023-03-11T14:02:45.725Z,365
2023-03-11T14:03:26.282Z,365
2023-03-11T14:04:06.827Z,355
2023-03-11T14:04:47.350Z,355
2023-03-11T14:05:27.873Z,355
2023-03-11T14:06:08.428Z,355
2023-03-11T14:06:48.909Z,375
2023-03-11T14:07:29.503Z,405
2023-03-11T14:08:10.008Z,365
2023-03-11T14:08:50.548Z,310
2023-03-11T14:14:15.724Z,335
2023-03-11T14:14:56.266Z,340
2023-03-11T14:15:36.778Z,320
2023-03-11T14:16:17.323Z,310
2023-03-11T14:16:57.875Z,310
2023-03-11T14:17:38.446Z,280
2023-03-11T14:18:18.990Z,270
2023-03-11T14:18:59.529Z,270
2023-03-11T14:19:40.111Z,295
2023-03-11T14:20:20.644Z,305
2023-03-11T14:25:56.596Z,305
2023-03-11T14:26:37.148Z,315
2023-03-11T14:27:18.289Z,320
2023-03-11T14:27:58.801Z,320
2023-03-11T14:30:31.286Z,300
2023-03-11T14:31:11.887Z,290
2023-03-11T14:31:53.360Z,300
2023-03-11T14:32:33.895Z,295
2023-03-11T14:34:46.592Z,285
2023-03-11T14:35:27.126Z,285
2023-03-11T14:36:07.707Z,265
2023-03-11T14:36:48.932Z,265
2023-03-11T14:39:23.428Z,285
2023-03-11T14:40:03.980Z,275
2023-03-11T14:40:44.554Z,280
2023-03-11T14:41:25.080Z,305
2023-03-11T14:45:28.370Z,250
2023-03-11T14:46:08.962Z,260
2023-03-11T14:46:49.406Z,235
2023-03-11T14:47:29.926Z,245
2023-03-11T14:48:11.206Z,240
2023-03-11T14:48:51.721Z,220
2023-03-11T14:49:32.250Z,215
2023-03-11T14:50:12.785Z,205
2023-03-11T14:56:29.081Z,220
2023-03-11T14:57:09.653Z,205
2023-03-11T14:57:50.182Z,210
2023-03-11T14:58:30.716Z,200
2023-03-11T15:02:47.142Z,200
2023-03-11T15:03:27.724Z,195
2023-03-11T15:04:08.247Z,190
2023-03-11T15:04:50.137Z,185
2023-03-11T15:07:03.768Z,165
2023-03-11T15:07:45.878Z,155
2023-03-11T15:08:26.436Z,150
2023-03-11T15:09:06.993Z,150
2023-03-11T15:11:45.165Z,145
2023-03-11T15:12:25.704Z,150
2023-03-11T15:13:06.251Z,150
2023-03-11T15:13:46.783Z,150
2023-03-11T15:18:01.444Z,155
2023-03-11T15:18:41.981Z,155
2023-03-11T15:19:22.485Z,160
2023-03-11T15:20:03.000Z,160
2023-03-11T15:22:34.324Z,175
2023-03-11T15:23:14.826Z,175
2023-03-11T15:23:55.376Z,170
2023-03-11T15:24:35.903Z,170
2023-03-11T15:28:39.102Z,140
2023-03-11T15:29:20.525Z,135
2023-03-11T15:30:01.039Z,130
2023-03-11T15:30:41.608Z,125
2023-03-11T15:31:22.137Z,125
2023-03-11T15:34:00.799Z,110
2023-03-11T15:34:41.958Z,105
2023-03-11T15:35:22.488Z,100
2023-03-11T15:36:03.087Z,100
2023-03-11T15:38:17.231Z,100
2023-03-11T15:38:59.089Z,100
2023-03-11T15:39:43.704Z,100
2023-03-11T15:40:32.625Z,100
2023-03-11T15:41:07.253Z,100
2023-03-11T15:42:33.657Z,90
2023-03-11T15:45:01.779Z,85
2023-03-11T15:45:42.336Z,85
2023-03-11T15:46:23.002Z,85
2023-03-11T15:47:03.462Z,85
2023-03-11T15:52:23.112Z,85
2023-03-11T15:53:03.644Z,85
2023-03-11T15:53:44.136Z,90
2023-03-11T15:54:24.644Z,90
2023-03-11T16:01:01.552Z,90
2023-03-11T16:01:42.161Z,90
2023-03-11T16:02:22.668Z,90
2023-03-11T16:03:03.221Z,90
2023-03-11T16:07:08.780Z,80
2023-03-11T16:07:47.166Z,80
2023-03-11T16:08:27.732Z,80
2023-03-11T16:09:08.302Z,80
2023-03-11T16:09:48.865Z,75
2023-03-11T16:10:29.436Z,75
2023-03-11T16:11:09.938Z,75
2023-03-11T16:11:50.471Z,75
2023-03-11T16:12:31.039Z,75
2023-03-11T16:17:56.258Z,60
2023-03-11T16:20:34.769Z,50
2023-03-11T16:21:15.310Z,50
2023-03-11T16:21:55.853Z,50
2023-03-11T16:22:36.424Z,50
2023-03-11T16:26:39.565Z,45
2023-03-11T16:27:20.103Z,50
2023-03-11T16:28:00.616Z,45
2023-03-11T16:28:41.128Z,45
2023-03-11T16:29:21.634Z,45
2023-03-11T16:30:02.307Z,45
2023-03-11T16:30:42.721Z,45
2023-03-11T16:31:23.916Z,45
2023-03-11T16:37:29.531Z,35
2023-03-11T16:38:10.065Z,35
2023-03-11T16:38:50.619Z,35
2023-03-11T16:39:31.153Z,35
2023-03-11T16:40:11.721Z,35
2023-03-11T16:40:52.821Z,35
2023-03-11T16:41:33.328Z,35
2023-03-11T16:42:13.856Z,35
2023-03-11T16:42:54.415Z,35
2023-03-11T16:47:11.782Z,30
2023-03-11T16:47:54.882Z,30
2023-03-11T16:48:36.124Z,25
2023-03-11T16:49:19.190Z,25
2023-03-11T16:51:33.467Z,20
2023-03-11T16:52:14.004Z,20
2023-03-11T16:52:54.490Z,20
2023-03-11T16:53:35.027Z,20
2023-03-11T16:56:58.570Z,20
2023-03-11T16:57:39.034Z,20
2023-03-11T16:58:19.823Z,20
2023-03-11T16:59:00.356Z,20
2023-03-11T16:59:41.676Z,20
2023-03-11T17:02:22.197Z,15
2023-03-11T17:03:03.108Z,15
2023-03-11T17:03:44.380Z,15
2023-03-11T17:04:24.915Z,15
2023-03-11T17:05:07.342Z,15
2023-03-11T17:05:47.819Z,15
2023-03-11T17:06:28.335Z,15
2023-03-11T17:07:09.797Z,15
2023-03-11T17:07:50.334Z,15
2023-03-11T17:14:35.592Z,10
2023-03-11T17:15:16.106Z,5
2023-03-11T17:15:56.640Z,5
2023-03-11T17:16:37.280Z,5
2023-03-11T17:17:17.701Z,5
2023-03-11T17:17:58.256Z,5
2023-03-11T17:18:39.375Z,5
2023-03-11T17:19:19.889Z,5
2023-03-11T17:20:00.409Z,5
2023-03-11T17:26:05.805Z,0
2023-03-11T17:26:46.349Z,0
2023-03-11T17:27:26.826Z,0
2023-03-11T17:28:07.382Z,0
2023-03-11T17:28:47.913Z,0
2023-03-11T17:29:28.443Z,0
2023-03-11T17:30:08.992Z,0
2023-03-11T17:30:49.541Z,0
2023-03-11T17:31:30.147Z,0
2023-03-11T17:39:09.106Z,0
2023-03-11T17:39:49.663Z,0
2023-03-11T17:40:30.219Z,0
2023-03-11T17:41:10.785Z,0
2023-03-11T17:44:25.259Z,0
2023-03-11T17:45:05.813Z,0
2023-03-11T17:45:47.963Z,0
2023-03-11T17:46:28.551Z,0
2023-03-11T17:50:06.620Z,0
2023-03-11T17:50:47.790Z,0
2023-03-11T17:51:28.338Z,0
2023-03-11T17:52:08.819Z,0
2023-03-11T17:56:43.540Z,0
2023-03-11T17:57:24.088Z,0
2023-03-11T17:58:04.621Z,0
2023-03-11T17:58:45.090Z,0
2023-03-11T18:02:48.153Z,0
2023-03-11T18:03:28.660Z,0
2023-03-11T18:04:09.165Z,0
2023-03-11T18:04:50.404Z,0
2023-03-11T18:05:30.878Z,0
2023-03-11T18:06:11.389Z,0
2023-03-11T18:06:51.917Z,0
2023-03-11T18:07:32.485Z,0
2023-03-11T18:10:01.428Z,0
2023-03-11T18:10:41.925Z,0
2023-03-11T18:11:22.443Z,0
2023-03-11T18:12:02.957Z,0
2023-03-11T18:13:25.429Z,0
2023-03-11T18:14:05.933Z,0
2023-03-11T18:14:46.452Z,0
2023-03-11T18:15:26.963Z,0
2023-03-11T18:16:07.496Z,0
2023-03-11T18:16:48.039Z,0
2023-03-11T18:17:28.482Z,0
2023-03-11T18:18:08.965Z,0
2023-03-11T18:18:49.484Z,0
2023-03-11T18:19:30.002Z,0
2023-03-11T18:26:55.714Z,0
2023-03-11T18:27:36.223Z,0
2023-03-11T18:28:16.778Z,0
2023-03-11T18:28:57.255Z,0
2023-03-11T18:29:37.781Z,0
2023-03-11T18:30:18.312Z,0
2023-03-11T18:30:58.834Z,0
2023-03-11T18:31:39.424Z,0
2023-03-11T18:32:19.954Z,0
2023-03-11T18:33:00.454Z,0
2023-03-11T18:37:15.756Z,0
2023-03-11T18:37:56.293Z,0
2023-03-11T18:38:36.816Z,0
2023-03-11T18:39:17.340Z,0
2023-03-11T18:42:51.425Z,0
2023-03-11T18:43:31.976Z,0
2023-03-11T18:44:12.535Z,0
2023-03-11T18:44:53.038Z,0
2023-03-11T18:47:36.037Z,0
2023-03-11T18:48:16.535Z,0
2023-03-11T18:48:57.061Z,0
2023-03-11T18:49:37.580Z,0
2023-03-11T18:50:18.084Z,0
2023-03-11T18:50:58.608Z,0